
Distance (Route):
Temperature : -50.2°C
Humidity : 0.8%
Pressure : 55.1hPa| Receiver | Frames | First received | Last received |
|---|---|---|---|
| DL1XH-west | 46 | 2026-08-31 00:52:33 | 2026-08-31 01:01:17 |
| DL1XH1-15 | 37 | 2026-08-31 00:54:17 | 2026-08-31 01:01:15 |
| DJ2DS-15 | 25 | 2026-08-31 00:32:42 | 2026-08-31 01:03:58 |
| DM0DOS-11 | 3 | 2026-08-31 00:52:38 | 2026-08-31 00:53:13 |
| Receiver | Date | Latitude | Longitude | Direction | Speed | Altitude | Climb | Temperature | Humidity | Pressure | Voltage | Killtimer | Uptime | BKT | XDATA |
|---|---|---|---|---|---|---|---|---|---|---|---|---|---|---|---|
| DJ2DS-15 | 2026-08-31 01:03:58 | 59.19514 | 6.52954 | 34° | 24km/h | 20377m | -45.3m/s | -50.2°C | 0.8% | 55.1hPa | 2.4V | 00:00:00 | 00:00:00 | 00:00:00 | |
| DJ2DS-15 | 2026-08-31 01:03:22 | 59.19408 | 6.52772 | 20° | 16km/h | 21694m | -49.8m/s | -50.7°C | 0.8% | 45.0hPa | 2.4V | 00:00:00 | 00:00:00 | 00:00:00 | |
| DJ2DS-15 | 2026-08-31 01:02:46 | 59.19346 | 6.52646 | 333° | 9km/h | 23533m | -54.2m/s | -50.4°C | 0.9% | 33.9hPa | 2.4V | 00:00:00 | 00:00:00 | 00:00:00 | |
| DL1XH-west | 2026-08-31 01:01:17 | 59.19214 | 6.52499 | 88° | 9km/h | 29315m | -80.2m/s | -45.1°C | 0% | 14hPa | 2.4V | 18:12:15 | 02:22:16 | 00:00:00 | |
| DL1XH1-15 | 2026-08-31 01:01:15 | 59.19212 | 6.52468 | 78° | 15km/h | 29818m | -87.6m/s | -44.4°C | 2.9% | 13hPa | 2.4V | 08:30:00 | 02:22:10 | 00:00:00 | |
| DL1XH-west | 2026-08-31 01:01:06 | 59.19211 | 6.52440 | 97° | 15km/h | 30168m | -88.5m/s | -43°C | 0% | 12.3hPa | 2.4V | 18:12:15 | 02:22:06 | 00:00:00 | |
| DL1XH1-15 | 2026-08-31 01:01:00 | 59.19215 | 6.52398 | 83° | 13km/h | 30774m | -84.6m/s | -42.3°C | 2.4% | 11.2hPa | 2.4V | 08:30:00 | 02:21:59 | 00:00:00 | |
| DL1XH-west | 2026-08-31 01:00:56 | 59.19213 | 6.52381 | 65° | 15km/h | 31026m | -83.2m/s | -42.6°C | 0% | 10.8hPa | 2.5V | 18:12:15 | 02:21:56 | 00:00:00 | |
| DL1XH1-15 | 2026-08-31 01:00:50 | 59.19202 | 6.52301 | 91° | 18km/h | 31815m | -52.4m/s | -42.1°C | 2.3% | 9.5hPa | 2.5V | 08:30:00 | 02:21:45 | 00:00:00 | |
| DL1XH-west | 2026-08-31 01:00:46 | 59.19202 | 6.52301 | 91° | 18km/h | 31815m | -52.4m/s | -42.1°C | 0% | 9.5hPa | 2.5V | 18:12:15 | 02:21:45 | 00:00:00 | |
| DL1XH1-15 | 2026-08-31 01:00:40 | 59.19222 | 6.52246 | 121° | 16km/h | 32037m | 5.7m/s | -42.1°C | 2.3% | 9.2hPa | 2.5V | 08:30:00 | 02:21:35 | 00:00:00 | |
| DL1XH-west | 2026-08-31 01:00:35 | 59.19222 | 6.52246 | 122° | 16km/h | 32037m | 5.7m/s | -42.1°C | 0% | 9.2hPa | 2.5V | 18:12:15 | 02:21:35 | 00:00:00 | |
| DL1XH1-15 | 2026-08-31 01:00:30 | 59.19205 | 6.52165 | 89° | 16km/h | 31977m | 5m/s | -42.5°C | 2.3% | 9.2hPa | 2.4V | 08:30:00 | 02:21:24 | 00:00:00 | |
| DL1XH-west | 2026-08-31 01:00:25 | 59.19206 | 6.52173 | 77° | 15km/h | 31983m | 5.6m/s | -42.4°C | 0% | 9.3hPa | 2.5V | 18:12:15 | 02:21:25 | 00:00:00 | |
| DL1XH1-15 | 2026-08-31 01:00:19 | 59.19202 | 6.52097 | 54° | 18km/h | 31925m | 5.4m/s | -42.9°C | 2.4% | 9.3hPa | 2.5V | 08:30:00 | 02:21:14 | 00:00:00 | |
| DL1XH-west | 2026-08-31 01:00:14 | 59.19202 | 6.52097 | 55° | 18km/h | 31925m | 5.4m/s | -42.9°C | 0% | 9.3hPa | 2.5V | 18:12:15 | 02:21:14 | 00:00:00 | |
| DL1XH1-15 | 2026-08-31 01:00:09 | 59.19192 | 6.52031 | 65° | 13km/h | 31870m | 4.6m/s | -43°C | 2.4% | 9.4hPa | 2.5V | 08:30:00 | 02:21:04 | 00:00:00 | |
| DL1XH-west | 2026-08-31 01:00:04 | 59.19190 | 6.52025 | 56° | 16km/h | 31865m | 4.7m/s | -43°C | 0% | 9.4hPa | 2.5V | 18:12:15 | 02:21:03 | 00:00:00 | |
| DL1XH1-15 | 2026-08-31 00:59:59 | 59.19163 | 6.51946 | 81° | 11km/h | 31815m | 6.1m/s | -43.2°C | 2.5% | 9.4hPa | 2.5V | 08:30:00 | 02:20:54 | 00:00:00 | |
| DL1XH-west | 2026-08-31 00:59:52 | 59.19162 | 6.51933 | 78° | 18km/h | 31803m | 4.9m/s | -43.3°C | 0% | 9.5hPa | 2.5V | 18:12:15 | 02:20:52 | 00:00:00 | |
| DL1XH1-15 | 2026-08-31 00:59:49 | 59.19133 | 6.51867 | 52° | 31km/h | 31760m | 6.5m/s | -43.6°C | 2.5% | 9.6hPa | 2.5V | 08:30:00 | 02:20:44 | 00:00:00 | |
| DL1XH-west | 2026-08-31 00:59:41 | 59.19122 | 6.51826 | 67° | 29km/h | 31743m | 6m/s | -43.6°C | 0% | 9.6hPa | 2.5V | 18:12:15 | 02:20:41 | 00:00:00 | |
| DL1XH1-15 | 2026-08-31 00:59:39 | 59.19101 | 6.51746 | 56° | 35km/h | 31705m | 4.8m/s | -43.8°C | 2.5% | 9.6hPa | 2.5V | 08:30:00 | 02:20:34 | 00:00:00 | |
| DL1XH-west | 2026-08-31 00:59:31 | 59.19083 | 6.51708 | 35° | 33km/h | 31688m | 6.1m/s | -43.9°C | 0% | 9.7hPa | 2.5V | 18:12:15 | 02:20:31 | 00:00:00 | |
| DL1XH1-15 | 2026-08-31 00:59:29 | 59.19050 | 6.51630 | 78° | 29km/h | 31650m | 5.2m/s | -43.9°C | 2.6% | 9.7hPa | 2.4V | 08:30:00 | 02:20:24 | 00:00:00 | |
| DL1XH-west | 2026-08-31 00:59:21 | 59.19044 | 6.51592 | 61° | 26km/h | 31634m | 4.9m/s | -44°C | 0% | 9.8hPa | 2.5V | 18:12:15 | 02:20:21 | 00:00:00 | |
| DL1XH1-15 | 2026-08-31 00:59:19 | 59.19004 | 6.51510 | 30° | 29km/h | 31596m | 6.4m/s | -44°C | 2.5% | 9.8hPa | 2.5V | 08:30:00 | 02:20:14 | 00:00:00 | |
| DL1XH-west | 2026-08-31 00:59:10 | 59.18983 | 6.51487 | 45° | 24km/h | 31574m | 6m/s | -44°C | 0% | 9.8hPa | 2.5V | 18:12:15 | 02:20:10 | 00:00:00 | |
| DL1XH-west | 2026-08-31 00:59:00 | 59.18936 | 6.51399 | 37° | 26km/h | 31518m | 4.7m/s | -44.2°C | 0% | 9.9hPa | 2.5V | 18:12:15 | 02:20:00 | 00:00:00 | |
| DL1XH1-15 | 2026-08-31 00:58:59 | 59.18913 | 6.51374 | 55° | 11km/h | 31486m | 6.1m/s | -44.3°C | 2.6% | 10hPa | 2.5V | 08:30:00 | 02:19:54 | 00:00:00 | |
| DL1XH-west | 2026-08-31 00:58:50 | 59.18903 | 6.51336 | 44° | 22km/h | 31456m | 5.7m/s | -44.5°C | 0% | 10hPa | 2.5V | 18:12:15 | 02:19:49 | 00:00:00 | |
| DL1XH-west | 2026-08-31 00:58:39 | 59.18869 | 6.51282 | 39° | 4km/h | 31394m | 5.2m/s | -44.6°C | 0% | 10.1hPa | 2.5V | 18:12:15 | 02:19:38 | 00:00:00 | |
| DL1XH1-15 | 2026-08-31 00:58:39 | 59.18864 | 6.51263 | 51° | 16km/h | 31372m | 6m/s | -44.6°C | 2.6% | 10.1hPa | 2.5V | 08:30:00 | 02:19:34 | 00:00:00 | |
| DJ2DS-15 | 2026-08-31 00:58:33 | 59.18861 | 6.51258 | 37° | 16km/h | 31365m | 6.3m/s | -44.7°C | 0.5% | 10.1hPa | 2.5V | 00:00:00 | 00:00:00 | 00:00:00 | |
| DL1XH1-15 | 2026-08-31 00:58:29 | 59.18846 | 6.51231 | 103° | 2km/h | 31313m | 5.8m/s | -44.8°C | 2.7% | 10.2hPa | 2.5V | 08:30:00 | 02:19:24 | 00:00:00 | |
| DL1XH-west | 2026-08-31 00:58:29 | 59.18846 | 6.51246 | 29° | 11km/h | 31343m | 6.2m/s | -44.7°C | 0% | 10.2hPa | 2.5V | 18:12:15 | 02:19:29 | 00:00:00 | |
| DL1XH-west | 2026-08-31 00:58:19 | 59.18836 | 6.51215 | 20° | 15km/h | 31278m | 6.4m/s | -44.9°C | 0% | 10.3hPa | 2.5V | 18:12:15 | 02:19:18 | 00:00:00 | |
| DL1XH1-15 | 2026-08-31 00:58:17 | 59.18824 | 6.51213 | 22° | 4km/h | 31257m | 5.9m/s | -44.9°C | 2.7% | 10.3hPa | 2.5V | 08:30:00 | 02:19:14 | 00:00:00 | |
| DL1XH-west | 2026-08-31 00:58:08 | 59.18834 | 6.51201 | 324° | 7km/h | 31216m | 4.5m/s | -44.9°C | 0% | 10.4hPa | 2.5V | 18:12:15 | 02:19:07 | 00:00:00 | |
| DL1XH1-15 | 2026-08-31 00:57:57 | 59.18831 | 6.51155 | 111° | 11km/h | 31136m | 5.2m/s | -45°C | 2.7% | 10.5hPa | 2.5V | 08:30:00 | 02:18:53 | 00:00:00 | |
| DL1XH-west | 2026-08-31 00:57:57 | 59.18826 | 6.51169 | 145° | 9km/h | 31154m | 6.6m/s | -45°C | 0% | 10.4hPa | 2.5V | 18:12:15 | 02:18:56 | 00:00:00 | |
| DL1XH-west | 2026-08-31 00:57:46 | 59.18823 | 6.51124 | 93° | 13km/h | 31089m | 5.8m/s | -45°C | 0% | 10.6hPa | 2.5V | 18:12:15 | 02:18:45 | 00:00:00 | |
| DL1XH1-15 | 2026-08-31 00:57:44 | 59.18825 | 6.51116 | 144° | 9km/h | 31076m | 5.6m/s | -45°C | 2.8% | 10.6hPa | 2.5V | 08:30:00 | 02:18:43 | 00:00:00 | |
| DL1XH1-15 | 2026-08-31 00:57:37 | 59.18839 | 6.51077 | 82° | 5km/h | 31022m | 4.7m/s | -44.8°C | 2.7% | 10.7hPa | 2.5V | 08:30:00 | 02:18:33 | 00:00:00 | |
| DL1XH-west | 2026-08-31 00:57:35 | 59.18840 | 6.51080 | 66° | 5km/h | 31027m | 4.6m/s | -44.8°C | 0% | 10.7hPa | 2.5V | 18:12:15 | 02:18:34 | 00:00:00 | |
| DL1XH1-15 | 2026-08-31 00:57:24 | 59.18867 | 6.51028 | 108° | 16km/h | 30963m | 5.9m/s | -44.7°C | 2.7% | 10.8hPa | 2.5V | 08:30:00 | 02:18:23 | 00:00:00 | |
| DL1XH-west | 2026-08-31 00:57:24 | 59.18865 | 6.51035 | 126° | 15km/h | 30970m | 6.4m/s | -44.7°C | 0% | 10.8hPa | 2.5V | 18:12:15 | 02:18:24 | 00:00:00 | |
| DJ2DS-15 | 2026-08-31 00:57:21 | 59.18867 | 6.51006 | 75° | 11km/h | 30946m | 5.9m/s | -44.8°C | 0.6% | 10.8hPa | 2.5V | 00:00:00 | 00:00:00 | 00:00:00 | |
| DL1XH1-15 | 2026-08-31 00:57:18 | 59.18876 | 6.50959 | 142° | 18km/h | 30908m | 6.5m/s | -44.9°C | 2.7% | 10.9hPa | 2.5V | 08:30:00 | 02:18:13 | 00:00:00 | |
| DL1XH-west | 2026-08-31 00:57:13 | 59.18876 | 6.50959 | 143° | 18km/h | 30908m | 6.5m/s | -44.9°C | 0% | 10.9hPa | 2.5V | 18:12:15 | 02:18:13 | 00:00:00 | |
| DL1XH1-15 | 2026-08-31 00:57:08 | 59.18903 | 6.50904 | 120° | 11km/h | 30851m | 5.1m/s | -44.9°C | 2.7% | 11hPa | 2.5V | 08:30:00 | 02:18:03 | 00:00:00 | |
| DL1XH-west | 2026-08-31 00:57:03 | 59.18903 | 6.50904 | 121° | 11km/h | 30851m | 5.1m/s | -44.9°C | 0% | 11hPa | 2.5V | 18:12:15 | 02:18:03 | 00:00:00 | |
| DL1XH1-15 | 2026-08-31 00:56:58 | 59.18926 | 6.50863 | 127° | 16km/h | 30796m | 5.4m/s | -44.8°C | 2.8% | 11.1hPa | 2.5V | 08:30:00 | 02:17:53 | 00:00:00 | |
| DL1XH-west | 2026-08-31 00:56:52 | 59.18929 | 6.50855 | 123° | 20km/h | 30791m | 4m/s | -44.8°C | 0% | 11.1hPa | 2.5V | 18:12:15 | 02:17:52 | 00:00:00 | |
| DL1XH1-15 | 2026-08-31 00:56:47 | 59.18946 | 6.50805 | 124° | 22km/h | 30741m | 4.9m/s | -44.8°C | 2.7% | 11.1hPa | 2.4V | 08:30:00 | 02:17:43 | 00:00:00 | |
| DL1XH-west | 2026-08-31 00:56:41 | 59.18952 | 6.50789 | 120° | 16km/h | 30731m | 6m/s | -44.8°C | 0% | 11.2hPa | 2.5V | 18:12:15 | 02:17:41 | 00:00:00 | |
| DL1XH1-15 | 2026-08-31 00:56:35 | 59.18961 | 6.50740 | 130° | 11km/h | 30686m | 5.6m/s | -44.6°C | 2.7% | 11.2hPa | 2.5V | 08:30:00 | 02:17:33 | 00:00:00 | |
| DL1XH-west | 2026-08-31 00:56:31 | 59.18969 | 6.50728 | 145° | 18km/h | 30671m | 6.2m/s | -44.6°C | 0% | 11.3hPa | 2.5V | 18:12:15 | 02:17:30 | 00:00:00 | |
| DL1XH1-15 | 2026-08-31 00:56:28 | 59.18991 | 6.50685 | 120° | 13km/h | 30631m | 6.1m/s | -44.6°C | 2.6% | 11.3hPa | 2.5V | 08:30:00 | 02:17:23 | 00:00:00 | |
| DL1XH-west | 2026-08-31 00:56:20 | 59.18999 | 6.50664 | 141° | 11km/h | 30609m | 6.1m/s | -44.6°C | 0% | 11.4hPa | 2.5V | 18:12:15 | 02:17:19 | 00:00:00 | |
| DL1XH-west | 2026-08-31 00:56:10 | 59.19031 | 6.50604 | 127° | 13km/h | 30556m | 4.5m/s | -44.9°C | 0% | 11.5hPa | 2.5V | 18:12:15 | 02:17:09 | 00:00:00 | |
| DL1XH1-15 | 2026-08-31 00:56:04 | 59.19051 | 6.50568 | 141° | 18km/h | 30523m | 6m/s | -45.1°C | 2.8% | 11.5hPa | 2.5V | 08:30:00 | 02:17:03 | 00:00:00 | |
| DL1XH-west | 2026-08-31 00:56:00 | 59.19066 | 6.50526 | 111° | 29km/h | 30495m | 4.8m/s | -45.1°C | 0% | 11.6hPa | 2.5V | 18:12:15 | 02:16:58 | 00:00:00 | |
| DL1XH-west | 2026-08-31 00:55:49 | 59.19084 | 6.50426 | 122° | 33km/h | 30447m | 5.1m/s | -45°C | 0% | 11.7hPa | 2.5V | 18:12:15 | 02:16:49 | 00:00:00 | |
| DL1XH1-15 | 2026-08-31 00:55:48 | 59.19102 | 6.50362 | 104° | 20km/h | 30416m | 5.7m/s | -44.9°C | 2.8% | 11.7hPa | 2.5V | 08:30:00 | 02:16:43 | 00:00:00 | |
| DL1XH-west | 2026-08-31 00:55:38 | 59.19111 | 6.50301 | 109° | 26km/h | 30389m | 5.7m/s | -44.9°C | 0% | 11.8hPa | 2.5V | 18:12:15 | 02:16:38 | 00:00:00 | |
| DL1XH1-15 | 2026-08-31 00:55:38 | 59.19117 | 6.50253 | 102° | 26km/h | 30361m | 5.4m/s | -44.9°C | 2.7% | 11.8hPa | 2.5V | 08:30:00 | 02:16:33 | 00:00:00 | |
| DJ2DS-15 | 2026-08-31 00:55:33 | 59.19119 | 6.50241 | 100° | 26km/h | 30356m | 4.4m/s | -44.9°C | 0.5% | 11.8hPa | 2.4V | 00:00:00 | 00:00:00 | 00:00:00 | |
| DL1XH1-15 | 2026-08-31 00:55:28 | 59.19126 | 6.50145 | 105° | 24km/h | 30307m | 4.6m/s | -45.1°C | 2.7% | 11.9hPa | 2.4V | 08:30:00 | 02:16:23 | 00:00:00 | |
| DL1XH-west | 2026-08-31 00:55:28 | 59.19122 | 6.50187 | 93° | 18km/h | 30329m | 5.1m/s | -44.9°C | 0% | 11.9hPa | 2.5V | 18:12:15 | 02:16:27 | 00:00:00 | |
| DL1XH-west | 2026-08-31 00:55:17 | 59.19127 | 6.50075 | 80° | 22km/h | 30268m | 5.2m/s | -45.4°C | 0% | 11.9hPa | 2.5V | 18:12:15 | 02:16:16 | 00:00:00 | |
| DL1XH1-15 | 2026-08-31 00:55:16 | 59.19122 | 6.50048 | 68° | 16km/h | 30251m | 4.7m/s | -45.6°C | 2.6% | 12hPa | 2.5V | 08:30:00 | 02:16:13 | 00:00:00 | |
| DL1XH-west | 2026-08-31 00:55:06 | 59.19120 | 6.49978 | 74° | 22km/h | 30212m | 4.8m/s | -46.1°C | 0% | 12.1hPa | 2.5V | 18:12:15 | 02:16:06 | 00:00:00 | |
| DL1XH1-15 | 2026-08-31 00:55:03 | 59.19112 | 6.49937 | 66° | 22km/h | 30190m | 4.3m/s | -46.3°C | 2.8% | 12.1hPa | 2.5V | 08:30:00 | 02:16:02 | 00:00:00 | |
| DL1XH1-15 | 2026-08-31 00:54:56 | 59.19081 | 6.49839 | 74° | 33km/h | 30136m | 5.9m/s | -46.5°C | 3% | 12.2hPa | 2.5V | 00:00:00 | 02:15:52 | 00:00:00 | |
| DL1XH-west | 2026-08-31 00:54:56 | 59.19092 | 6.49894 | 57° | 22km/h | 30158m | 6m/s | -46.4°C | 0% | 12.2hPa | 2.5V | 18:12:15 | 02:15:56 | 00:00:00 | |
| DL1XH-west | 2026-08-31 00:54:46 | 59.19079 | 6.49758 | 96° | 22km/h | 30103m | 5m/s | -46.7°C | 0% | 12.3hPa | 2.5V | 18:12:15 | 02:15:46 | 00:00:00 | |
| DL1XH1-15 | 2026-08-31 00:54:45 | 59.19071 | 6.49724 | 48° | 24km/h | 30081m | 5.2m/s | -46.7°C | 3% | 0hPa | 2.5V | 00:00:00 | 02:15:42 | 00:00:00 | |
| DL1XH1-15 | 2026-08-31 00:54:35 | 59.19054 | 6.49608 | 78° | 16km/h | 30024m | 6.2m/s | -46.8°C | 2.9% | 0hPa | 2.5V | 00:00:00 | 02:15:32 | 00:00:00 | |
| DL1XH-west | 2026-08-31 00:54:35 | 59.19059 | 6.49635 | 75° | 24km/h | 30041m | 5.7m/s | -46.8°C | 0% | 0hPa | 2.5V | 18:12:15 | 02:15:35 | 00:00:00 | |
| DL1XH-west | 2026-08-31 00:54:25 | 59.19052 | 6.49578 | 79° | 11km/h | 29984m | 6.6m/s | -46.9°C | 0% | 0hPa | 2.5V | 18:12:15 | 02:15:25 | 00:00:00 | |
| DL1XH1-15 | 2026-08-31 00:54:23 | 59.19049 | 6.49554 | 66° | 20km/h | 29967m | 5.4m/s | -47.1°C | 0% | 0hPa | 2.5V | 00:00:00 | 02:15:22 | 00:00:00 | |
| DL1XH1-15 | 2026-08-31 00:54:17 | 59.19016 | 6.49510 | 13° | 16km/h | 29909m | 4.8m/s | 0°C | 0% | 0hPa | 2.5V | 00:00:00 | 02:15:12 | 00:00:00 | |
| DL1XH-west | 2026-08-31 00:54:14 | 59.19023 | 6.49514 | 21° | 15km/h | 29920m | 6.3m/s | 0°C | 0% | 0hPa | 2.5V | 18:12:15 | 02:15:14 | 00:00:00 | |
| DL1XH-west | 2026-08-31 00:54:04 | 59.18994 | 6.49477 | 32° | 7km/h | 29865m | 5.3m/s | 0°C | 0% | 0hPa | 2.5V | 18:12:15 | 02:15:04 | 00:00:00 | |
| DL1XH-west | 2026-08-31 00:53:53 | 59.18969 | 6.49465 | 45° | 16km/h | 29803m | 4.4m/s | 0°C | 0% | 0hPa | 2.5V | 18:12:15 | 02:14:53 | 00:00:00 | |
| DJ2DS-15 | 2026-08-31 00:53:44 | 59.18968 | 6.49455 | 11° | 9km/h | 29740m | 5.9m/s | -47.9°C | 0.7% | 13.0hPa | 2.5V | 00:00:00 | 00:00:00 | 00:00:00 | |
| DM0DOS-11 | 2026-08-31 00:53:13 | 59.19033 | 6.49394 | 184° | 11km/h | 29549m | 5m/s | 0°C | 0% | 0hPa | 2.5V | 00:00:00 | 02:14:08 | 00:00:00 | |
| DJ2DS-15 | 2026-08-31 00:53:08 | 59.19033 | 6.49394 | 184° | 11km/h | 29549m | 5.0m/s | -47.7°C | 0.7% | 13.3hPa | 2.5V | 00:00:00 | 00:00:00 | 00:00:00 | |
| DM0DOS-11 | 2026-08-31 00:53:03 | 59.19056 | 6.49403 | 139° | 2km/h | 29492m | 5.2m/s | 0°C | 0% | 0hPa | 2.5V | 00:00:00 | 02:13:58 | 00:00:00 | |
| DL1XH-west | 2026-08-31 00:53:00 | 59.19054 | 6.49400 | 256° | 7km/h | 29504m | 5.3m/s | 0°C | 0% | 0hPa | 2.5V | 18:12:15 | 02:14:00 | 00:00:00 | |
| DL1XH-west | 2026-08-31 00:52:45 | 59.19056 | 6.49367 | 13° | 16km/h | 29418m | 6.4m/s | 0°C | 0% | 0hPa | 2.5V | 18:12:15 | 02:13:45 | 00:00:00 | |
| DM0DOS-11 | 2026-08-31 00:52:38 | 59.19041 | 6.49344 | 99° | 9km/h | 29372m | 6.3m/s | 0°C | 0% | 0hPa | 2.5V | 00:00:00 | 02:13:37 | 00:00:00 | |
| DL1XH-west | 2026-08-31 00:52:33 | 59.19037 | 6.49317 | 34° | 9km/h | 29344m | 4.8m/s | 0°C | 0% | 0hPa | 2.5V | 18:12:15 | 02:13:32 | 00:00:00 | |
| DJ2DS-15 | 2026-08-31 00:51:57 | 59.19088 | 6.49213 | 138° | 9km/h | 29147m | 5.6m/s | -47.8°C | 0.7% | 14.2hPa | 0V | 00:00:00 | 00:00:00 | 00:00:00 | |
| DJ2DS-15 | 2026-08-31 00:50:08 | 59.19108 | 6.48510 | 48° | 16km/h | 28572m | 5.7m/s | -50.1°C | 0.8% | 15.5hPa | 0V | 00:00:00 | 00:00:00 | 00:00:00 | |
| DJ2DS-15 | 2026-08-31 00:49:32 | 59.19023 | 6.48417 | 323° | 11km/h | 28366m | 5.8m/s | -50.1°C | 0.8% | 16.0hPa | 0V | 00:00:00 | 00:00:00 | 00:00:00 | |
| DJ2DS-15 | 2026-08-31 00:48:56 | 59.19003 | 6.48427 | 175° | 9km/h | 28161m | 5.5m/s | -50.0°C | 0.8% | 16.5hPa | 0V | 00:00:00 | 00:00:00 | 00:00:00 | |
| DJ2DS-15 | 2026-08-31 00:48:20 | 59.19029 | 6.48397 | 68° | 7km/h | 27957m | 5.1m/s | -50.0°C | 0.7% | 17.1hPa | 0V | 00:00:00 | 00:00:00 | 00:00:00 | |
| DJ2DS-15 | 2026-08-31 00:47:44 | 59.19010 | 6.48370 | 231° | 4km/h | 27742m | 5.6m/s | -50.3°C | 0.8% | 17.6hPa | 0V | 00:00:00 | 00:00:00 | 00:00:00 | |
| DJ2DS-15 | 2026-08-31 00:47:08 | 59.19086 | 6.48446 | 190° | 15km/h | 27533m | 6.0m/s | -50.4°C | 0.8% | 18.2hPa | 0V | 00:00:00 | 00:00:00 | 00:00:00 | |
| DJ2DS-15 | 2026-08-31 00:45:55 | 59.19158 | 6.48105 | 338° | 4km/h | 27137m | 5.2m/s | -51.0°C | 0.8% | 19.4hPa | 0V | 00:00:00 | 00:00:00 | 00:00:00 | |
| DJ2DS-15 | 2026-08-31 00:45:19 | 59.19129 | 6.47989 | 43° | 7km/h | 26937m | 5.5m/s | -50.5°C | 0.8% | 19.9hPa | 0V | 00:00:00 | 00:00:00 | 00:00:00 | |
| DJ2DS-15 | 2026-08-31 00:42:19 | 59.18758 | 6.47866 | 334° | 11km/h | 25950m | 4.6m/s | -50.3°C | 0.8% | 23.2hPa | 0V | 00:00:00 | 00:00:00 | 00:00:00 | |
| DJ2DS-15 | 2026-08-31 00:39:19 | 59.18229 | 6.47740 | 339° | 18km/h | 24989m | 6.4m/s | -51.4°C | 0.8% | 26.9hPa | 0V | 00:00:00 | 00:00:00 | 00:00:00 | |
| DJ2DS-15 | 2026-08-31 00:38:43 | 59.18107 | 6.47825 | 265° | 13km/h | 24795m | 4.1m/s | -52.2°C | 0.9% | 27.8hPa | 0V | 00:00:00 | 00:00:00 | 00:00:00 | |
| DJ2DS-15 | 2026-08-31 00:36:55 | 59.17855 | 6.48178 | 258° | 9km/h | 24208m | 4.0m/s | -51.9°C | 0.9% | 30.4hPa | 0V | 00:00:00 | 00:00:00 | 00:00:00 | |
| DJ2DS-15 | 2026-08-31 00:36:18 | 59.17809 | 6.48234 | 8° | 5km/h | 24017m | 5.5m/s | -51.8°C | 0.9% | 31.3hPa | 0V | 00:00:00 | 00:00:00 | 00:00:00 | |
| DJ2DS-15 | 2026-08-31 00:35:42 | 59.17681 | 6.48215 | 0° | 24km/h | 23830m | 4.4m/s | -51.8°C | 0.9% | 32.2hPa | 0V | 00:00:00 | 00:00:00 | 00:00:00 | |
| DJ2DS-15 | 2026-08-31 00:33:18 | 59.17610 | 6.48021 | 137° | 0km/h | 23085m | 4.3m/s | -52.2°C | 1.0% | 36.1hPa | 0V | 00:00:00 | 00:00:00 | 00:00:00 | |
| DJ2DS-15 | 2026-08-31 00:32:42 | 59.17577 | 6.47897 | 26° | 5km/h | 22900m | 5.3m/s | 0°C | -1.0% | -1.0hPa | 0V | 00:00:00 | 00:00:00 | 00:00:00 |